sensor_id;sensor_type;location;lat;lon;timestamp;pressure;altitude;pressure_sealevel;temperature;humidity
62976;BME280;49071;0.000;0.000;2023-04-22T03:55:43;100816.00;;;17.98;44.18
62976;BME280;49071;0.000;0.000;2023-04-22T03:58:43;100808.19;;;17.97;44.19
62976;BME280;49071;0.000;0.000;2023-04-22T04:01:46;100810.88;;;17.95;44.10
62976;BME280;49071;0.000;0.000;2023-04-22T04:04:46;100817.91;;;17.94;44.19
62976;BME280;49071;0.000;0.000;2023-04-22T04:07:46;100812.72;;;17.93;44.30
62976;BME280;49071;0.000;0.000;2023-04-22T04:10:47;100816.25;;;17.92;44.45
62976;BME280;49071;0.000;0.000;2023-04-22T04:13:47;100818.03;;;17.91;44.42
62976;BME280;49071;0.000;0.000;2023-04-22T04:16:47;100804.06;;;17.91;44.21
62976;BME280;49071;0.000;0.000;2023-04-22T04:19:47;100802.28;;;17.91;44.06
62976;BME280;49071;0.000;0.000;2023-04-22T04:22:48;100808.47;;;17.90;44.41
62976;BME280;49071;0.000;0.000;2023-04-22T04:25:48;100805.84;;;17.90;44.35
62976;BME280;49071;0.000;0.000;2023-04-22T04:28:48;100813.72;;;17.90;44.30
62976;BME280;49071;0.000;0.000;2023-04-22T04:31:49;100814.56;;;17.91;44.06
62976;BME280;49071;0.000;0.000;2023-04-22T04:34:49;100811.09;;;17.90;44.29
62976;BME280;49071;0.000;0.000;2023-04-22T04:37:49;100821.50;;;17.92;44.26
62976;BME280;49071;0.000;0.000;2023-04-22T04:40:50;100819.75;;;17.92;44.18
62976;BME280;49071;0.000;0.000;2023-04-22T04:43:50;100823.16;;;17.94;44.06
62976;BME280;49071;0.000;0.000;2023-04-22T04:46:51;100816.06;;;17.97;44.14
62976;BME280;49071;0.000;0.000;2023-04-22T04:49:51;100822.09;;;17.99;44.13
62976;BME280;49071;0.000;0.000;2023-04-22T04:52:53;100817.63;;;18.01;43.81
62976;BME280;49071;0.000;0.000;2023-04-22T04:55:53;100824.53;;;18.03;43.78
62976;BME280;49071;0.000;0.000;2023-04-22T04:58:53;100820.84;;;18.07;43.89
62976;BME280;49071;0.000;0.000;2023-04-22T05:01:54;100820.69;;;18.10;43.69
62976;BME280;49071;0.000;0.000;2023-04-22T05:04:54;100817.84;;;18.15;43.60
62976;BME280;49071;0.000;0.000;2023-04-22T05:07:54;100817.66;;;18.20;43.55
62976;BME280;49071;0.000;0.000;2023-04-22T05:10:54;100825.19;;;18.27;43.47
62976;BME280;49071;0.000;0.000;2023-04-22T05:13:55;100811.78;;;18.33;43.17
62976;BME280;49071;0.000;0.000;2023-04-22T05:16:55;100809.78;;;18.38;43.32
62976;BME280;49071;0.000;0.000;2023-04-22T05:19:55;100820.16;;;18.41;43.20
62976;BME280;49071;0.000;0.000;2023-04-22T05:22:55;100820.00;;;18.45;43.15
62976;BME280;49071;0.000;0.000;2023-04-22T05:25:56;100819.06;;;18.46;43.06
62976;BME280;49071;0.000;0.000;2023-04-22T05:28:57;100817.91;;;18.53;42.91
62976;BME280;49071;0.000;0.000;2023-04-22T05:31:57;100813.56;;;19.59;40.73
62976;BME280;49071;0.000;0.000;2023-04-22T05:34:57;100816.88;;;21.24;37.06
62976;BME280;49071;0.000;0.000;2023-04-22T05:37:57;100819.00;;;19.39;40.03
62976;BME280;49071;0.000;0.000;2023-04-22T05:40:57;100807.88;;;18.80;41.61
62976;BME280;49071;0.000;0.000;2023-04-22T05:43:57;100816.06;;;18.74;42.32
62976;BME280;49071;0.000;0.000;2023-04-22T05:46:58;100815.81;;;18.78;42.08
62976;BME280;49071;0.000;0.000;2023-04-22T05:49:58;100811.28;;;18.82;42.03
62976;BME280;49071;0.000;0.000;2023-04-22T05:52:58;100812.75;;;18.87;41.97
62976;BME280;49071;0.000;0.000;2023-04-22T05:55:58;100816.84;;;18.93;41.96
62976;BME280;49071;0.000;0.000;2023-04-22T05:58:58;100812.94;;;19.02;41.98
62976;BME280;49071;0.000;0.000;2023-04-22T06:01:59;100802.03;;;19.09;41.92
62976;BME280;49071;0.000;0.000;2023-04-22T06:04:59;100800.59;;;19.21;41.80
62976;BME280;49071;0.000;0.000;2023-04-22T06:07:59;100810.41;;;19.35;41.48
62976;BME280;49071;0.000;0.000;2023-04-22T06:10:59;100807.22;;;19.46;41.14
62976;BME280;49071;0.000;0.000;2023-04-22T06:13:59;100810.31;;;19.54;41.34
62976;BME280;49071;0.000;0.000;2023-04-22T06:17:00;100805.69;;;19.59;41.31
62976;BME280;49071;0.000;0.000;2023-04-22T06:20:00;100806.38;;;19.63;41.20
62976;BME280;49071;0.000;0.000;2023-04-22T06:23:01;100808.09;;;19.64;41.13
62976;BME280;49071;0.000;0.000;2023-04-22T06:26:01;100810.66;;;19.65;41.03
62976;BME280;49071;0.000;0.000;2023-04-22T06:29:01;100806.25;;;19.66;41.10
62976;BME280;49071;0.000;0.000;2023-04-22T06:32:04;100799.13;;;19.68;40.92
62976;BME280;49071;0.000;0.000;2023-04-22T06:35:04;100806.16;;;19.67;41.18
62976;BME280;49071;0.000;0.000;2023-04-22T06:38:05;100806.16;;;19.67;41.13
62976;BME280;49071;0.000;0.000;2023-04-22T06:41:05;100805.41;;;19.65;41.37
62976;BME280;49071;0.000;0.000;2023-04-22T06:44:05;100802.03;;;19.62;41.17
62976;BME280;49071;0.000;0.000;2023-04-22T06:47:05;100796.78;;;19.62;41.04
62976;BME280;49071;0.000;0.000;2023-04-22T06:50:06;100807.25;;;19.63;41.13
62976;BME280;49071;0.000;0.000;2023-04-22T06:53:06;100803.84;;;19.61;41.12
62976;BME280;49071;0.000;0.000;2023-04-22T06:56:08;100800.31;;;19.61;41.22
62976;BME280;49071;0.000;0.000;2023-04-22T06:59:08;100808.09;;;19.64;41.24
62976;BME280;49071;0.000;0.000;2023-04-22T07:02:09;100807.09;;;19.66;41.18
62976;BME280;49071;0.000;0.000;2023-04-22T07:05:09;100796.56;;;19.66;41.14
62976;BME280;49071;0.000;0.000;2023-04-22T07:08:09;100795.63;;;19.67;41.43
62976;BME280;49071;0.000;0.000;2023-04-22T07:11:10;100796.50;;;19.68;41.38
62976;BME280;49071;0.000;0.000;2023-04-22T07:14:10;100788.34;;;19.72;41.01
62976;BME280;49071;0.000;0.000;2023-04-22T07:17:11;100795.41;;;19.72;40.98
62976;BME280;49071;0.000;0.000;2023-04-22T07:20:11;100791.94;;;19.71;41.17
62976;BME280;49071;0.000;0.000;2023-04-22T07:23:11;100791.84;;;19.73;41.23
62976;BME280;49071;0.000;0.000;2023-04-22T07:26:11;100792.25;;;19.65;41.28
62976;BME280;49071;0.000;0.000;2023-04-22T07:29:12;100783.56;;;19.63;41.20
62976;BME280;49071;0.000;0.000;2023-04-22T07:32:12;100788.59;;;19.68;41.15
62976;BME280;49071;0.000;0.000;2023-04-22T07:35:12;100793.88;;;19.68;41.15
62976;BME280;49071;0.000;0.000;2023-04-22T07:38:12;100792.31;;;19.64;40.96
62976;BME280;49071;0.000;0.000;2023-04-22T07:41:12;100786.56;;;19.55;40.77
62976;BME280;49071;0.000;0.000;2023-04-22T07:44:13;100786.03;;;19.49;41.15
62976;BME280;49071;0.000;0.000;2023-04-22T07:47:17;100786.13;;;19.47;41.44
62976;BME280;49071;0.000;0.000;2023-04-22T07:50:17;100787.03;;;18.94;38.30
62976;BME280;49071;0.000;0.000;2023-04-22T07:53:17;100791.09;;;18.82;38.88
62976;BME280;49071;0.000;0.000;2023-04-22T07:56:17;100786.50;;;19.22;39.25
62976;BME280;49071;0.000;0.000;2023-04-22T07:59:17;100802.38;;;18.09;36.84
62976;BME280;49071;0.000;0.000;2023-04-22T08:02:18;100778.94;;;17.65;36.00
62976;BME280;49071;0.000;0.000;2023-04-22T08:05:18;100779.28;;;18.17;36.11
62976;BME280;49071;0.000;0.000;2023-04-22T08:08:18;100777.41;;;18.76;36.60
62976;BME280;49071;0.000;0.000;2023-04-22T08:11:18;100774.34;;;19.02;37.33
62976;BME280;49071;0.000;0.000;2023-04-22T08:14:19;100773.66;;;19.16;37.81
62976;BME280;49071;0.000;0.000;2023-04-22T08:17:19;100778.47;;;19.25;38.10
62976;BME280;49071;0.000;0.000;2023-04-22T08:20:20;100781.63;;;19.32;38.79
62976;BME280;49071;0.000;0.000;2023-04-22T08:23:21;100775.38;;;19.34;38.49
62976;BME280;49071;0.000;0.000;2023-04-22T08:26:21;100776.13;;;19.37;38.79
62976;BME280;49071;0.000;0.000;2023-04-22T08:29:21;100775.81;;;19.43;38.94
62976;BME280;49071;0.000;0.000;2023-04-22T08:32:21;100770.50;;;19.44;39.06
62976;BME280;49071;0.000;0.000;2023-04-22T08:35:25;100768.78;;;19.43;38.81
62976;BME280;49071;0.000;0.000;2023-04-22T08:38:25;100762.75;;;19.41;39.08
62976;BME280;49071;0.000;0.000;2023-04-22T08:41:26;100771.50;;;19.42;39.41
62976;BME280;49071;0.000;0.000;2023-04-22T08:44:26;100765.28;;;19.43;39.56
62976;BME280;49071;0.000;0.000;2023-04-22T08:47:27;100757.25;;;19.46;39.44
62976;BME280;49071;0.000;0.000;2023-04-22T08:50:28;100753.69;;;19.47;39.92
62976;BME280;49071;0.000;0.000;2023-04-22T08:53:29;100761.50;;;19.48;39.88
62976;BME280;49071;0.000;0.000;2023-04-22T08:56:30;100757.09;;;19.49;39.85
62976;BME280;49071;0.000;0.000;2023-04-22T08:59:30;100750.00;;;19.51;40.00
62976;BME280;49071;0.000;0.000;2023-04-22T09:02:31;100752.63;;;19.51;39.70
62976;BME280;49071;0.000;0.000;2023-04-22T09:05:31;100753.47;;;19.51;39.84
62976;BME280;49071;0.000;0.000;2023-04-22T09:08:32;100756.09;;;19.51;40.11
62976;BME280;49071;0.000;0.000;2023-04-22T09:11:33;100755.25;;;19.51;39.86
62976;BME280;49071;0.000;0.000;2023-04-22T09:14:33;100750.84;;;19.51;39.78
62976;BME280;49071;0.000;0.000;2023-04-22T09:17:34;100749.09;;;19.50;39.75
62976;BME280;49071;0.000;0.000;2023-04-22T09:20:37;100743.94;;;19.49;39.93
62976;BME280;49071;0.000;0.000;2023-04-22T09:23:47;100743.00;;;19.50;40.02
62976;BME280;49071;0.000;0.000;2023-04-22T09:26:48;100743.09;;;19.48;40.09
62976;BME280;49071;0.000;0.000;2023-04-22T09:29:48;100740.47;;;19.48;40.11
62976;BME280;49071;0.000;0.000;2023-04-22T09:32:50;100735.19;;;19.48;39.97
62976;BME280;49071;0.000;0.000;2023-04-22T09:35:51;100732.63;;;19.47;40.20
62976;BME280;49071;0.000;0.000;2023-04-22T09:38:56;100727.38;;;19.47;40.06
62976;BME280;49071;0.000;0.000;2023-04-22T09:41:57;100720.44;;;19.46;40.05
62976;BME280;49071;0.000;0.000;2023-04-22T09:44:57;100722.22;;;19.45;40.17
62976;BME280;49071;0.000;0.000;2023-04-22T09:48:02;100730.94;;;19.46;39.97
62976;BME280;49071;0.000;0.000;2023-04-22T09:51:05;100722.28;;;19.44;40.23
62976;BME280;49071;0.000;0.000;2023-04-22T09:54:13;100715.41;;;19.41;40.00
62976;BME280;49071;0.000;0.000;2023-04-22T09:57:13;100712.78;;;19.41;40.49
62976;BME280;49071;0.000;0.000;2023-04-22T10:00:16;100707.59;;;19.40;40.24
62976;BME280;49071;0.000;0.000;2023-04-22T10:03:16;100703.16;;;19.40;40.42
62976;BME280;49071;0.000;0.000;2023-04-22T10:06:16;100706.75;;;19.39;40.70
62976;BME280;49071;0.000;0.000;2023-04-22T10:09:17;100703.25;;;19.39;40.60
62976;BME280;49071;0.000;0.000;2023-04-22T10:12:18;100699.84;;;19.37;40.67
62976;BME280;49071;0.000;0.000;2023-04-22T10:15:19;100697.00;;;19.41;40.59
62976;BME280;49071;0.000;0.000;2023-04-22T10:18:23;100691.91;;;19.38;40.46
62976;BME280;49071;0.000;0.000;2023-04-22T10:21:24;100694.59;;;19.37;40.71
62976;BME280;49071;0.000;0.000;2023-04-22T10:24:26;100680.69;;;19.34;40.56
62976;BME280;49071;0.000;0.000;2023-04-22T10:27:26;100683.38;;;19.33;40.29
62976;BME280;49071;0.000;0.000;2023-04-22T10:30:31;100681.69;;;19.32;39.89
62976;BME280;49071;0.000;0.000;2023-04-22T10:36:34;100668.53;;;19.32;40.18
62976;BME280;49071;0.000;0.000;2023-04-22T10:39:34;100666.84;;;19.31;40.31
62976;BME280;49071;0.000;0.000;2023-04-22T10:42:34;100654.72;;;19.28;40.53
62976;BME280;49071;0.000;0.000;2023-04-22T10:45:35;100659.19;;;19.26;40.66
62976;BME280;49071;0.000;0.000;2023-04-22T10:48:50;100653.09;;;19.26;40.46
62976;BME280;49071;0.000;0.000;2023-04-22T10:51:53;100653.19;;;19.24;40.50
62976;BME280;49071;0.000;0.000;2023-04-22T10:57:53;100655.97;;;19.21;41.04
62976;BME280;49071;0.000;0.000;2023-04-22T11:00:53;100652.56;;;19.19;40.98
62976;BME280;49071;0.000;0.000;2023-04-22T11:04:20;100648.22;;;19.18;40.96
62976;BME280;49071;0.000;0.000;2023-04-22T11:10:30;100642.19;;;19.16;41.03
62976;BME280;49071;0.000;0.000;2023-04-22T11:13:31;100639.56;;;19.16;41.24
62976;BME280;49071;0.000;0.000;2023-04-22T11:16:31;100630.09;;;19.14;41.34
62976;BME280;49071;0.000;0.000;2023-04-22T11:19:32;100631.09;;;19.11;41.45
62976;BME280;49071;0.000;0.000;2023-04-22T11:22:35;100631.09;;;19.11;41.35
62976;BME280;49071;0.000;0.000;2023-04-22T11:25:36;100623.34;;;19.08;41.46
62976;BME280;49071;0.000;0.000;2023-04-22T11:28:44;100619.09;;;19.05;41.79
62976;BME280;49071;0.000;0.000;2023-04-22T11:31:47;100618.25;;;19.05;41.59
62976;BME280;49071;0.000;0.000;2023-04-22T11:34:49;100612.22;;;19.03;41.59
62976;BME280;49071;0.000;0.000;2023-04-22T11:37:54;100605.25;;;19.02;41.86
62976;BME280;49071;0.000;0.000;2023-04-22T11:40:55;100609.75;;;19.00;41.58
62976;BME280;49071;0.000;0.000;2023-04-22T11:43:56;100604.56;;;18.98;41.69
62976;BME280;49071;0.000;0.000;2023-04-22T11:46:59;100601.09;;;18.98;42.26
62976;BME280;49071;0.000;0.000;2023-04-22T11:50:01;100597.69;;;18.96;42.00
62976;BME280;49071;0.000;0.000;2023-04-22T11:53:10;100587.19;;;18.96;41.91
62976;BME280;49071;0.000;0.000;2023-04-22T11:56:11;100590.75;;;18.95;42.15
62976;BME280;49071;0.000;0.000;2023-04-22T11:59:12;100590.81;;;18.93;42.51
62976;BME280;49071;0.000;0.000;2023-04-22T12:02:15;100577.84;;;18.90;42.43
62976;BME280;49071;0.000;0.000;2023-04-22T12:05:16;100591.06;;;18.88;42.45
62976;BME280;49071;0.000;0.000;2023-04-22T12:08:20;100586.75;;;18.87;42.33
62976;BME280;49071;0.000;0.000;2023-04-22T12:11:20;100587.66;;;18.86;42.36
62976;BME280;49071;0.000;0.000;2023-04-22T12:14:26;100585.97;;;18.85;42.55
62976;BME280;49071;0.000;0.000;2023-04-22T12:17:29;100579.94;;;18.83;42.29
62976;BME280;49071;0.000;0.000;2023-04-22T12:20:34;100580.84;;;18.82;42.66
62976;BME280;49071;0.000;0.000;2023-04-22T12:23:47;100573.91;;;18.81;42.67
62976;BME280;49071;0.000;0.000;2023-04-22T12:26:48;100572.22;;;18.80;42.67
62976;BME280;49071;0.000;0.000;2023-04-22T12:29:52;100569.59;;;18.80;42.63
62976;BME280;49071;0.000;0.000;2023-04-22T12:32:52;100561.78;;;18.79;42.76
62976;BME280;49071;0.000;0.000;2023-04-22T12:35:53;100557.47;;;18.78;42.58
62976;BME280;49071;0.000;0.000;2023-04-22T12:38:53;100563.66;;;18.77;42.79
62976;BME280;49071;0.000;0.000;2023-04-22T12:41:53;100558.47;;;18.75;43.13
62976;BME280;49071;0.000;0.000;2023-04-22T12:44:53;100556.78;;;18.74;43.33
62976;BME280;49071;0.000;0.000;2023-04-22T12:47:53;100543.69;;;18.73;43.39
62976;BME280;49071;0.000;0.000;2023-04-22T12:50:54;100540.22;;;18.72;43.86
62976;BME280;49071;0.000;0.000;2023-04-22T12:53:54;100535.88;;;18.71;43.80
62976;BME280;49071;0.000;0.000;2023-04-22T12:56:54;100540.28;;;18.71;43.17
62976;BME280;49071;0.000;0.000;2023-04-22T12:59:56;100533.19;;;18.73;43.19
62976;BME280;49071;0.000;0.000;2023-04-22T13:02:57;100528.81;;;18.73;42.99
62976;BME280;49071;0.000;0.000;2023-04-22T13:05:57;100529.66;;;18.74;43.05
62976;BME280;49071;0.000;0.000;2023-04-22T13:08:57;100523.56;;;18.73;42.98
62976;BME280;49071;0.000;0.000;2023-04-22T13:11:57;100527.94;;;18.73;43.46
62976;BME280;49071;0.000;0.000;2023-04-22T13:14:58;100513.94;;;18.72;43.54
62976;BME280;49071;0.000;0.000;2023-04-22T13:17:58;100512.16;;;18.73;42.77
62976;BME280;49071;0.000;0.000;2023-04-22T13:20:58;100510.47;;;18.72;43.01
62976;BME280;49071;0.000;0.000;2023-04-22T13:23:59;100504.34;;;18.71;43.20
62976;BME280;49071;0.000;0.000;2023-04-22T13:26:59;100500.03;;;18.70;43.26
62976;BME280;49071;0.000;0.000;2023-04-22T13:30:00;100500.94;;;18.69;42.80
62976;BME280;49071;0.000;0.000;2023-04-22T13:33:00;100502.72;;;18.69;42.91
62976;BME280;49071;0.000;0.000;2023-04-22T13:36:00;100498.41;;;18.68;42.78
62976;BME280;49071;0.000;0.000;2023-04-22T13:39:01;100487.97;;;18.66;43.21
62976;BME280;49071;0.000;0.000;2023-04-22T13:42:01;100487.13;;;18.65;42.86
62976;BME280;49071;0.000;0.000;2023-04-22T13:45:02;100490.78;;;18.63;43.16
62976;BME280;49071;0.000;0.000;2023-04-22T13:48:03;100490.78;;;18.63;43.47
62976;BME280;49071;0.000;0.000;2023-04-22T13:51:03;100482.03;;;18.62;43.44
62976;BME280;49071;0.000;0.000;2023-04-22T13:54:03;100481.97;;;18.64;43.39
62976;BME280;49071;0.000;0.000;2023-04-22T13:57:04;100481.88;;;18.65;43.36
62976;BME280;49071;0.000;0.000;2023-04-22T14:00:04;100482.72;;;18.66;43.51
62976;BME280;49071;0.000;0.000;2023-04-22T14:03:05;100474.91;;;18.64;43.58
62976;BME280;49071;0.000;0.000;2023-04-22T14:06:05;100474.09;;;18.64;43.73
62976;BME280;49071;0.000;0.000;2023-04-22T14:09:05;100467.03;;;18.64;43.49
62976;BME280;49071;0.000;0.000;2023-04-22T14:12:06;100463.47;;;18.65;43.32
62976;BME280;49071;0.000;0.000;2023-04-22T14:15:06;100458.91;;;18.69;43.58
62976;BME280;49071;0.000;0.000;2023-04-22T14:18:09;100451.91;;;18.70;42.62
62976;BME280;49071;0.000;0.000;2023-04-22T14:21:10;100455.53;;;18.67;42.35
62976;BME280;49071;0.000;0.000;2023-04-22T14:24:10;100445.94;;;18.66;43.39
62976;BME280;49071;0.000;0.000;2023-04-22T14:27:10;100437.13;;;18.67;43.53
62976;BME280;49071;0.000;0.000;2023-04-22T14:30:11;100439.84;;;18.65;42.96
62976;BME280;49071;0.000;0.000;2023-04-22T14:33:11;100442.56;;;18.64;43.03
62976;BME280;49071;0.000;0.000;2023-04-22T14:36:11;100446.97;;;18.63;43.51
62976;BME280;49071;0.000;0.000;2023-04-22T14:39:13;100439.16;;;18.62;43.11
62976;BME280;49071;0.000;0.000;2023-04-22T14:42:13;100437.47;;;18.61;43.48
62976;BME280;49071;0.000;0.000;2023-04-22T14:45:15;100438.31;;;18.61;43.23
62976;BME280;49071;0.000;0.000;2023-04-22T14:48:15;100425.25;;;18.60;43.49
62976;BME280;49071;0.000;0.000;2023-04-22T14:51:15;100432.22;;;18.61;43.41
62976;BME280;49071;0.000;0.000;2023-04-22T14:54:15;100424.38;;;18.59;43.71
62976;BME280;49071;0.000;0.000;2023-04-22T14:57:16;100417.38;;;18.60;43.27
62976;BME280;49071;0.000;0.000;2023-04-22T15:00:16;100408.63;;;18.59;43.79
62976;BME280;49071;0.000;0.000;2023-04-22T15:03:16;100410.41;;;18.59;43.70
62976;BME280;49071;0.000;0.000;2023-04-22T15:06:16;100407.78;;;18.59;43.32
62976;BME280;49071;0.000;0.000;2023-04-22T15:09:16;100395.59;;;18.58;43.43
62976;BME280;49071;0.000;0.000;2023-04-22T15:12:17;100401.78;;;18.57;43.81
62976;BME280;49071;0.000;0.000;2023-04-22T15:15:17;100401.78;;;18.57;43.35
62976;BME280;49071;0.000;0.000;2023-04-22T15:18:17;100392.19;;;18.56;43.35
62976;BME280;49071;0.000;0.000;2023-04-22T15:21:17;100392.19;;;18.56;43.63
62976;BME280;49071;0.000;0.000;2023-04-22T15:24:18;100393.06;;;18.56;43.52
62976;BME280;49071;0.000;0.000;2023-04-22T15:27:21;100392.19;;;18.56;43.64
62976;BME280;49071;0.000;0.000;2023-04-22T15:30:21;100386.94;;;18.56;43.07
62976;BME280;49071;0.000;0.000;2023-04-22T15:33:22;100383.47;;;18.55;43.72
62976;BME280;49071;0.000;0.000;2023-04-22T15:36:22;100382.63;;;18.55;43.24
62976;BME280;49071;0.000;0.000;2023-04-22T15:39:22;100381.69;;;18.56;43.64
62976;BME280;49071;0.000;0.000;2023-04-22T15:42:23;100381.69;;;18.56;43.41
62976;BME280;49071;0.000;0.000;2023-04-22T15:45:23;100372.13;;;18.55;43.88
62976;BME280;49071;0.000;0.000;2023-04-22T15:48:23;100380.00;;;18.55;43.62
62976;BME280;49071;0.000;0.000;2023-04-22T15:51:24;100372.13;;;18.55;43.81
62976;BME280;49071;0.000;0.000;2023-04-22T15:54:24;100374.75;;;18.55;43.64
62976;BME280;49071;0.000;0.000;2023-04-22T15:57:24;100373.91;;;18.54;43.56
62976;BME280;49071;0.000;0.000;2023-04-22T16:00:24;100372.13;;;18.55;43.64
62976;BME280;49071;0.000;0.000;2023-04-22T16:03:25;100367.66;;;18.57;43.97
62976;BME280;49071;0.000;0.000;2023-04-22T16:06:25;100371.84;;;18.59;44.02
62976;BME280;49071;0.000;0.000;2023-04-22T16:09:25;100368.22;;;18.62;43.93
62976;BME280;49071;0.000;0.000;2023-04-22T16:12:25;100366.28;;;18.65;44.16
62976;BME280;49071;0.000;0.000;2023-04-22T16:15:25;100364.44;;;18.68;43.92
62976;BME280;49071;0.000;0.000;2023-04-22T16:18:26;100359.19;;;18.68;43.98
62976;BME280;49071;0.000;0.000;2023-04-22T16:21:26;100340.84;;;18.66;43.93
62976;BME280;49071;0.000;0.000;2023-04-22T16:24:27;100347.81;;;18.67;43.92
62976;BME280;49071;0.000;0.000;2023-04-22T16:27:27;100353.06;;;18.67;44.11
62976;BME280;49071;0.000;0.000;2023-04-22T16:30:28;100350.34;;;18.69;43.85
62976;BME280;49071;0.000;0.000;2023-04-22T16:33:28;100341.63;;;18.68;43.97
62976;BME280;49071;0.000;0.000;2023-04-22T16:36:28;100336.91;;;18.75;44.00
62976;BME280;49071;0.000;0.000;2023-04-22T16:39:30;100330.72;;;18.76;44.10
62976;BME280;49071;0.000;0.000;2023-04-22T16:42:30;100330.66;;;18.77;44.32
62976;BME280;49071;0.000;0.000;2023-04-22T16:45:30;100335.75;;;18.80;44.48
62976;BME280;49071;0.000;0.000;2023-04-22T16:48:30;100326.13;;;18.79;44.15
62976;BME280;49071;0.000;0.000;2023-04-22T16:51:31;100331.41;;;18.79;44.33
62976;BME280;49071;0.000;0.000;2023-04-22T16:54:31;100331.22;;;18.82;44.43
62976;BME280;49071;0.000;0.000;2023-04-22T16:57:32;100323.34;;;18.82;44.14
62976;BME280;49071;0.000;0.000;2023-04-22T17:00:33;100318.84;;;18.84;44.51
62976;BME280;49071;0.000;0.000;2023-04-22T17:03:33;100315.38;;;18.84;44.49
62976;BME280;49071;0.000;0.000;2023-04-22T17:06:33;100311.03;;;18.83;44.46
62976;BME280;49071;0.000;0.000;2023-04-22T17:09:33;100315.28;;;18.85;44.33
62976;BME280;49071;0.000;0.000;2023-04-22T17:12:33;100311.72;;;18.86;44.46
62976;BME280;49071;0.000;0.000;2023-04-22T17:15:33;100308.19;;;18.87;44.53
62976;BME280;49071;0.000;0.000;2023-04-22T17:18:34;100302.75;;;18.91;44.90
62976;BME280;49071;0.000;0.000;2023-04-22T17:21:35;100312.44;;;18.90;44.60
62976;BME280;49071;0.000;0.000;2023-04-22T17:24:35;100307.91;;;18.92;44.87
62976;BME280;49071;0.000;0.000;2023-04-22T17:27:35;100305.28;;;18.92;44.82
62976;BME280;49071;0.000;0.000;2023-04-22T17:30:36;100301.72;;;18.93;45.07
62976;BME280;49071;0.000;0.000;2023-04-22T17:33:36;100301.91;;;18.90;44.83
62976;BME280;49071;0.000;0.000;2023-04-22T17:36:36;100303.78;;;18.88;44.75
62976;BME280;49071;0.000;0.000;2023-04-22T17:39:36;100303.00;;;18.86;44.76
62976;BME280;49071;0.000;0.000;2023-04-22T17:42:39;100311.81;;;18.85;44.81
62976;BME280;49071;0.000;0.000;2023-04-22T17:45:39;100302.09;;;18.87;44.70
62976;BME280;49071;0.000;0.000;2023-04-22T17:48:39;100301.91;;;18.90;44.66
62976;BME280;49071;0.000;0.000;2023-04-22T17:51:41;100301.81;;;18.92;44.70
62976;BME280;49071;0.000;0.000;2023-04-22T17:54:41;100305.28;;;18.92;44.95
62976;BME280;49071;0.000;0.000;2023-04-22T17:57:42;100305.09;;;18.95;44.98
62976;BME280;49071;0.000;0.000;2023-04-22T18:00:44;100301.63;;;18.95;44.97
62976;BME280;49071;0.000;0.000;2023-04-22T18:03:44;100292.97;;;18.93;44.96
62976;BME280;49071;0.000;0.000;2023-04-22T18:06:44;100300.03;;;18.92;45.11
62976;BME280;49071;0.000;0.000;2023-04-22T18:09:44;100301.91;;;18.90;45.00
62976;BME280;49071;0.000;0.000;2023-04-22T18:12:45;100301.03;;;18.90;45.25
62976;BME280;49071;0.000;0.000;2023-04-22T18:15:45;100305.44;;;18.89;44.59
62976;BME280;49071;0.000;0.000;2023-04-22T18:18:45;100303.00;;;18.86;45.06
62976;BME280;49071;0.000;0.000;2023-04-22T18:21:45;100314.34;;;18.86;45.18
62976;BME280;49071;0.000;0.000;2023-04-22T18:24:46;100303.09;;;18.84;45.05
62976;BME280;49071;0.000;0.000;2023-04-22T18:27:46;100317.06;;;18.85;45.00
62976;BME280;49071;0.000;0.000;2023-04-22T18:30:46;100314.34;;;18.86;45.11
62976;BME280;49071;0.000;0.000;2023-04-22T18:33:46;100318.69;;;18.87;45.13
62976;BME280;49071;0.000;0.000;2023-04-22T18:36:47;100317.75;;;18.88;45.02
62976;BME280;49071;0.000;0.000;2023-04-22T18:39:47;100326.47;;;18.89;45.54
62976;BME280;49071;0.000;0.000;2023-04-22T18:42:47;100322.16;;;18.88;45.18
62976;BME280;49071;0.000;0.000;2023-04-22T18:45:47;100323.09;;;18.87;45.57
62976;BME280;49071;0.000;0.000;2023-04-22T18:48:47;100333.63;;;18.87;45.19
62976;BME280;49071;0.000;0.000;2023-04-22T18:51:48;100335.38;;;18.86;45.47
62976;BME280;49071;0.000;0.000;2023-04-22T18:54:48;100332.69;;;18.88;45.16
62976;BME280;49071;0.000;0.000;2023-04-22T18:57:48;100332.56;;;18.90;45.46
62976;BME280;49071;0.000;0.000;2023-04-22T19:00:49;100335.19;;;18.90;45.17
62976;BME280;49071;0.000;0.000;2023-04-22T19:03:49;100325.56;;;18.90;45.69
62976;BME280;49071;0.000;0.000;2023-04-22T19:06:50;100329.03;;;18.91;45.82
62976;BME280;49071;0.000;0.000;2023-04-22T19:09:50;100337.66;;;18.93;45.46
62976;BME280;49071;0.000;0.000;2023-04-22T19:12:50;100338.50;;;18.93;45.51
62976;BME280;49071;0.000;0.000;2023-04-22T19:15:51;100347.44;;;18.91;45.56
62976;BME280;49071;0.000;0.000;2023-04-22T19:18:51;100338.78;;;18.88;45.54
62976;BME280;49071;0.000;0.000;2023-04-22T19:21:51;100342.25;;;18.89;45.88
62976;BME280;49071;0.000;0.000;2023-04-22T19:24:51;100337.09;;;18.87;45.49
62976;BME280;49071;0.000;0.000;2023-04-22T19:27:51;100336.97;;;18.89;46.07
62976;BME280;49071;0.000;0.000;2023-04-22T19:30:51;100338.00;;;18.86;45.61
62976;BME280;49071;0.000;0.000;2023-04-22T19:33:52;100341.56;;;18.85;45.43
62976;BME280;49071;0.000;0.000;2023-04-22T19:36:52;100340.72;;;18.85;45.39
62976;BME280;49071;0.000;0.000;2023-04-22T19:39:52;100341.56;;;18.85;45.68
62976;BME280;49071;0.000;0.000;2023-04-22T19:42:53;100332.84;;;18.85;45.35
62976;BME280;49071;0.000;0.000;2023-04-22T19:45:53;100332.75;;;18.86;45.75
62976;BME280;49071;0.000;0.000;2023-04-22T19:48:54;100325.63;;;18.88;45.54
62976;BME280;49071;0.000;0.000;2023-04-22T19:51:54;100319.53;;;18.88;45.75
62976;BME280;49071;0.000;0.000;2023-04-22T19:54:56;100322.06;;;18.90;45.85
62976;BME280;49071;0.000;0.000;2023-04-22T19:57:59;100325.47;;;18.92;45.75
62976;BME280;49071;0.000;0.000;2023-04-22T20:01:00;100322.84;;;18.92;45.73